createdAt,value
2019-04-04T00:00:16.264Z,23.22
2019-04-04T00:01:56.251Z,21.02
2019-04-04T00:03:37.583Z,20.85
2019-04-04T00:05:19.630Z,21.07
2019-04-04T00:07:02.691Z,17.50
2019-04-04T00:08:46.908Z,22.55
2019-04-04T00:10:29.778Z,34.48
2019-04-04T00:12:13.268Z,27.02
2019-04-04T00:13:58.809Z,30.97
2019-04-04T00:17:22.877Z,26.17
2019-04-04T00:19:03.131Z,27.13
2019-04-04T00:20:44.544Z,23.38
2019-04-04T00:22:26.359Z,19.30
2019-04-04T00:24:09.132Z,17.37
2019-04-04T00:25:53.419Z,27.30
2019-04-04T00:27:35.452Z,17.60
2019-04-04T00:29:17.872Z,30.77
2019-04-04T00:31:01.545Z,27.40
2019-04-04T00:32:42.150Z,30.50
2019-04-04T00:34:24.115Z,27.02
2019-04-04T00:36:06.416Z,25.80
2019-04-04T00:37:49.158Z,19.17
2019-04-04T00:39:29.523Z,29.18
2019-04-04T00:41:13.006Z,23.77
2019-04-04T00:42:56.659Z,31.87
2019-04-04T00:44:36.487Z,27.77
2019-04-04T00:46:18.986Z,24.10
2019-04-04T00:47:59.220Z,22.10
2019-04-04T00:49:41.326Z,17.75
2019-04-04T00:51:22.415Z,20.65
2019-04-04T00:53:03.956Z,21.13
2019-04-04T00:55:00.568Z,20.75
2019-04-04T00:56:38.895Z,29.07
2019-04-04T00:58:18.945Z,21.03
2019-04-04T00:59:59.010Z,18.57
2019-04-04T01:01:39.712Z,25.53
2019-04-04T01:03:19.985Z,22.77
2019-04-04T01:05:01.336Z,26.42
2019-04-04T01:06:37.929Z,23.13
2019-04-04T01:08:18.053Z,23.92
2019-04-04T01:09:57.928Z,23.30
2019-04-04T01:11:39.339Z,16.65
2019-04-04T01:13:21.213Z,17.48
2019-04-04T01:15:00.738Z,19.95
2019-04-04T01:16:41.469Z,23.75
2019-04-04T01:18:21.070Z,24.57
2019-04-04T01:20:02.938Z,23.60
2019-04-04T01:21:45.892Z,20.62
2019-04-04T01:23:28.455Z,22.58
2019-04-04T01:25:10.696Z,19.67
2019-04-04T01:26:55.634Z,30.57
2019-04-04T01:28:34.591Z,29.83
2019-04-04T01:30:15.564Z,22.15
2019-04-04T01:31:56.210Z,23.45
2019-04-04T01:33:37.471Z,24.87
2019-04-04T01:35:17.873Z,23.10
2019-04-04T01:36:57.381Z,19.70
2019-04-04T01:38:37.792Z,24.80
2019-04-04T01:40:18.385Z,18.40
2019-04-04T01:41:58.213Z,25.67
2019-04-04T01:43:39.877Z,27.32
2019-04-04T01:45:20.709Z,29.55
2019-04-04T01:47:07.162Z,28.00
2019-04-04T01:48:52.233Z,16.35
2019-04-04T01:50:32.380Z,22.10
2019-04-04T01:52:14.353Z,20.37
2019-04-04T01:53:54.586Z,21.13
2019-04-04T01:55:35.746Z,18.63
2019-04-04T01:57:16.052Z,19.00
2019-04-04T01:58:55.239Z,18.40
2019-04-04T02:00:35.235Z,30.80
2019-04-04T02:02:17.747Z,15.23
2019-04-04T02:03:57.009Z,19.53
2019-04-04T02:05:38.155Z,18.77
2019-04-04T02:07:18.481Z,21.87
2019-04-04T02:09:06.144Z,21.00
2019-04-04T02:13:34.646Z,22.43
2019-04-04T02:15:15.169Z,18.03
2019-04-04T02:16:55.495Z,24.30
2019-04-04T02:18:37.974Z,24.10
2019-04-04T02:20:16.636Z,19.43
2019-04-04T02:22:00.396Z,23.83
2019-04-04T02:23:40.057Z,24.53
2019-04-04T02:25:20.833Z,22.83
2019-04-04T02:26:59.299Z,22.90
2019-04-04T02:28:39.990Z,25.02
2019-04-04T02:30:19.412Z,21.73
2019-04-04T02:31:59.850Z,19.40
2019-04-04T02:33:39.376Z,16.67
2019-04-04T02:35:16.503Z,18.87
2019-04-04T02:36:55.707Z,22.27
2019-04-04T02:38:36.633Z,20.97
2019-04-04T02:40:14.616Z,29.18
2019-04-04T02:41:53.942Z,22.47
2019-04-04T02:43:33.141Z,21.62
2019-04-04T02:45:12.474Z,22.27
2019-04-04T02:46:49.908Z,31.03
2019-04-04T02:48:28.982Z,26.17
2019-04-04T02:50:08.698Z,23.50
2019-04-04T02:51:48.254Z,29.43
2019-04-04T02:53:27.489Z,20.83
2019-04-04T02:55:06.581Z,20.97
2019-04-04T02:56:45.202Z,18.73
2019-04-04T02:58:22.800Z,22.53
2019-04-04T03:00:00.596Z,20.60
2019-04-04T03:01:42.655Z,30.33
2019-04-04T03:03:23.055Z,23.73
2019-04-04T03:05:02.377Z,24.23
2019-04-04T03:06:41.507Z,26.43
2019-04-04T03:08:20.512Z,23.93
2019-04-04T03:09:59.458Z,21.50
2019-04-04T03:11:38.436Z,22.35
2019-04-04T03:13:17.288Z,23.37
2019-04-04T03:14:56.490Z,24.87
2019-04-04T03:16:35.390Z,23.87
2019-04-04T03:18:15.784Z,23.37
2019-04-04T03:19:55.028Z,19.70
2019-04-04T03:21:34.654Z,26.93
2019-04-04T03:23:13.350Z,27.30
2019-04-04T03:24:52.390Z,25.30
2019-04-04T03:26:31.389Z,21.07
2019-04-04T03:28:10.541Z,28.43
2019-04-04T03:29:49.680Z,26.00
2019-04-04T03:31:36.371Z,22.93
2019-04-04T03:33:10.323Z,17.77
2019-04-04T03:34:51.103Z,27.03
2019-04-04T03:36:34.020Z,25.52
2019-04-04T03:38:13.447Z,20.17
2019-04-04T03:39:53.330Z,30.47
2019-04-04T03:41:35.849Z,22.20
2019-04-04T03:43:15.918Z,23.83
2019-04-04T03:44:54.633Z,19.40
2019-04-04T03:46:37.702Z,21.97
2019-04-04T03:48:17.039Z,25.33
2019-04-04T03:49:57.650Z,24.63
2019-04-04T03:51:38.269Z,24.67
2019-04-04T03:53:21.109Z,21.60
2019-04-04T03:55:00.517Z,21.52
2019-04-04T03:56:40.832Z,22.87
2019-04-04T03:58:21.405Z,25.20
2019-04-04T04:00:05.601Z,26.27
2019-04-04T04:01:45.380Z,29.12
2019-04-04T04:03:22.713Z,25.27
2019-04-04T04:05:02.322Z,26.57
2019-04-04T04:06:48.134Z,30.85
2019-04-04T04:08:27.026Z,27.20
2019-04-04T04:10:08.579Z,26.77
2019-04-04T04:11:48.087Z,27.65
2019-04-04T04:13:27.295Z,24.82
2019-04-04T04:15:06.977Z,26.90
2019-04-04T04:16:46.444Z,26.27
2019-04-04T04:18:26.077Z,22.15
2019-04-04T04:20:06.204Z,24.95
2019-04-04T04:21:45.075Z,29.25
2019-04-04T04:23:24.362Z,26.40
2019-04-04T04:25:03.752Z,32.65
2019-04-04T04:26:42.982Z,23.40
2019-04-04T04:28:24.341Z,32.70
2019-04-04T04:30:06.107Z,26.97
2019-04-04T04:31:48.291Z,31.48
2019-04-04T04:33:28.942Z,28.80
2019-04-04T04:35:07.610Z,29.02
2019-04-04T04:36:42.959Z,27.10
2019-04-04T04:38:25.394Z,35.25
2019-04-04T04:40:03.437Z,30.80
2019-04-04T04:41:41.057Z,29.52
2019-04-04T04:43:18.477Z,30.30
2019-04-04T04:44:55.443Z,31.17
2019-04-04T04:46:33.235Z,32.08
2019-04-04T04:48:10.971Z,29.37
2019-04-04T04:49:50.506Z,36.70
2019-04-04T04:51:29.612Z,35.65
2019-04-04T04:53:11.356Z,35.20
2019-04-04T04:54:58.023Z,39.95
2019-04-04T04:56:37.562Z,31.95
2019-04-04T04:58:15.848Z,34.10
2019-04-04T04:59:53.060Z,35.88
2019-04-04T05:01:31.193Z,41.92
2019-04-04T05:03:09.982Z,40.45
2019-04-04T05:04:46.850Z,35.50
2019-04-04T05:06:26.131Z,42.67
2019-04-04T05:08:03.591Z,33.65
2019-04-04T05:09:40.947Z,39.83
2019-04-04T05:11:18.998Z,39.88
2019-04-04T05:13:00.040Z,40.73
2019-04-04T05:14:37.615Z,38.23
2019-04-04T05:16:15.183Z,40.50
2019-04-04T05:17:52.694Z,53.90
2019-04-04T05:19:31.780Z,34.20
2019-04-04T05:21:10.726Z,40.83
2019-04-04T05:22:48.491Z,40.12
2019-04-04T05:24:25.966Z,42.88
2019-04-04T05:26:03.399Z,42.40
2019-04-04T05:27:42.356Z,35.50
2019-04-04T05:29:19.605Z,47.43
2019-04-04T05:30:56.591Z,76.85
2019-04-04T05:32:37.277Z,43.00
2019-04-04T05:34:15.321Z,41.70
2019-04-04T05:35:52.403Z,34.15
2019-04-04T05:37:29.774Z,41.25
2019-04-04T05:39:10.982Z,63.90
2019-04-04T05:40:48.437Z,37.85
2019-04-04T05:42:25.904Z,37.23
2019-04-04T05:44:03.283Z,33.75
2019-04-04T05:45:40.488Z,61.70
2019-04-04T05:47:17.935Z,41.10
2019-04-04T05:49:00.701Z,34.38
2019-04-04T05:50:38.253Z,48.50
2019-04-04T05:52:15.320Z,38.80
2019-04-04T05:53:52.457Z,51.50
2019-04-04T05:55:30.139Z,47.23
2019-04-04T05:57:08.532Z,36.80
2019-04-04T05:58:45.774Z,34.48
2019-04-04T06:00:26.980Z,43.15
2019-04-04T06:02:02.552Z,41.90
2019-04-04T06:03:40.643Z,35.25
2019-04-04T06:05:17.778Z,31.35
2019-04-04T06:06:55.758Z,31.25
2019-04-04T06:08:33.761Z,31.52
2019-04-04T06:10:12.335Z,43.30
2019-04-04T06:11:53.166Z,54.08
2019-04-04T06:13:31.261Z,46.05
2019-04-04T06:15:10.782Z,44.63
2019-04-04T06:16:58.959Z,51.85
2019-04-04T06:18:36.344Z,112.30
2019-04-04T06:20:14.997Z,153.93
2019-04-04T06:21:52.110Z,72.40
2019-04-04T06:23:30.011Z,35.70
2019-04-04T06:25:10.032Z,51.13
2019-04-04T06:26:48.357Z,27.55
2019-04-04T06:28:25.404Z,31.33
2019-04-04T06:30:02.427Z,28.30
2019-04-04T06:31:39.587Z,56.75
2019-04-04T06:33:19.217Z,104.23
2019-04-04T06:34:59.200Z,45.85
2019-04-04T06:36:36.269Z,39.38
2019-04-04T06:38:14.270Z,36.58
2019-04-04T06:39:54.501Z,31.75
2019-04-04T06:41:32.841Z,34.27
2019-04-04T06:43:14.054Z,43.50
2019-04-04T06:44:54.084Z,98.47
2019-04-04T06:46:31.236Z,29.82
2019-04-04T06:48:08.321Z,34.20
2019-04-04T06:49:45.910Z,29.37
2019-04-04T06:51:25.044Z,28.00
2019-04-04T06:53:04.215Z,29.85
2019-04-04T06:54:41.231Z,31.12
2019-04-04T06:56:19.212Z,29.70
2019-04-04T06:57:56.761Z,38.63
2019-04-04T06:59:34.838Z,34.15
2019-04-04T07:01:12.178Z,44.95
2019-04-04T07:02:49.316Z,68.28
2019-04-04T07:04:31.874Z,29.77
2019-04-04T07:06:10.891Z,28.25
2019-04-04T07:07:48.470Z,33.05
2019-04-04T07:09:26.907Z,100.55
2019-04-04T07:11:06.898Z,27.90
2019-04-04T07:12:43.286Z,23.87
2019-04-04T07:14:20.897Z,27.10
2019-04-04T07:16:06.991Z,24.72
2019-04-04T07:17:41.276Z,47.15
2019-04-04T07:19:20.994Z,27.62
2019-04-04T07:20:57.865Z,51.68
2019-04-04T07:22:39.819Z,32.60
2019-04-04T07:24:18.958Z,26.87
2019-04-04T07:25:57.787Z,28.40
2019-04-04T07:27:36.526Z,43.50
2019-04-04T07:29:14.769Z,33.45
2019-04-04T07:31:01.594Z,28.42
2019-04-04T07:32:50.099Z,49.58
2019-04-04T07:34:28.137Z,27.62
2019-04-04T07:36:06.413Z,28.23
2019-04-04T07:38:04.665Z,25.35
2019-04-04T07:39:43.382Z,26.17
2019-04-04T07:41:25.023Z,25.05
2019-04-04T07:43:03.065Z,29.07
2019-04-04T07:44:40.469Z,25.70
2019-04-04T07:46:18.165Z,27.98
2019-04-04T07:47:55.700Z,32.08
2019-04-04T07:49:33.771Z,28.00
2019-04-04T07:51:12.786Z,27.42
2019-04-04T07:52:51.376Z,30.00
2019-04-04T07:54:31.957Z,24.50
2019-04-04T07:56:09.938Z,57.33
2019-04-04T07:57:50.846Z,30.72
2019-04-04T07:59:31.200Z,45.00
2019-04-04T08:01:09.359Z,19.35
2019-04-04T08:02:47.306Z,32.28
2019-04-04T08:04:25.802Z,31.52
2019-04-04T08:06:03.845Z,24.75
2019-04-04T08:07:45.607Z,34.55
2019-04-04T08:09:22.832Z,58.38
2019-04-04T08:11:02.898Z,26.68
2019-04-04T08:12:40.626Z,24.57
2019-04-04T08:14:18.436Z,20.27
2019-04-04T08:15:56.166Z,20.23
2019-04-04T08:17:33.943Z,42.90
2019-04-04T08:19:12.456Z,20.75
2019-04-04T08:20:50.789Z,27.93
2019-04-04T08:22:29.642Z,21.42
2019-04-04T08:24:09.927Z,18.27
2019-04-04T08:25:49.341Z,15.50
2019-04-04T08:27:28.710Z,20.30
2019-04-04T08:29:07.100Z,15.13
2019-04-04T08:30:48.391Z,15.68
2019-04-04T08:32:25.390Z,12.55
2019-04-04T08:34:03.128Z,25.52
2019-04-04T08:35:42.385Z,14.50
2019-04-04T08:37:20.028Z,14.45
2019-04-04T08:38:58.502Z,21.95
2019-04-04T08:40:36.728Z,12.43
2019-04-04T08:42:13.762Z,11.38
2019-04-04T08:43:53.432Z,6.97
2019-04-04T08:45:30.382Z,4.42
2019-04-04T08:47:09.519Z,7.90
2019-04-04T08:48:47.404Z,10.13
2019-04-04T08:50:27.804Z,8.25
2019-04-04T08:52:27.636Z,7.67
2019-04-04T08:54:05.134Z,11.90
2019-04-04T08:55:46.619Z,10.55
2019-04-04T08:57:23.508Z,6.87
2019-04-04T08:59:02.190Z,10.63
2019-04-04T09:00:42.512Z,14.90
2019-04-04T09:02:22.834Z,8.38
2019-04-04T09:04:00.637Z,9.38
2019-04-04T09:05:39.886Z,12.30
2019-04-04T09:07:17.564Z,9.15
2019-04-04T09:08:55.388Z,8.88
2019-04-04T09:10:33.784Z,8.83
2019-04-04T09:12:12.794Z,9.45
2019-04-04T09:13:53.867Z,17.15
2019-04-04T09:15:32.180Z,8.73
2019-04-04T09:17:11.375Z,12.60
2019-04-04T09:18:48.386Z,9.20
2019-04-04T09:20:28.006Z,12.35
2019-04-04T09:22:10.811Z,9.18
2019-04-04T09:23:47.238Z,31.55
2019-04-04T09:25:24.370Z,22.45
2019-04-04T09:27:06.205Z,39.35
2019-04-04T09:28:50.008Z,18.23
2019-04-04T09:30:29.731Z,13.22
2019-04-04T09:32:12.053Z,9.65
2019-04-04T09:33:51.727Z,9.55
2019-04-04T09:35:32.209Z,10.60
2019-04-04T09:37:11.163Z,9.73
2019-04-04T09:38:50.261Z,8.65
2019-04-04T09:40:29.410Z,11.08
2019-04-04T09:42:10.362Z,10.63
2019-04-04T09:43:50.999Z,11.12
2019-04-04T09:45:30.758Z,10.40
2019-04-04T09:47:09.956Z,11.93
2019-04-04T09:48:50.283Z,11.53
2019-04-04T09:50:30.383Z,12.05
2019-04-04T09:52:10.738Z,11.45
2019-04-04T09:53:53.199Z,12.15
2019-04-04T09:55:30.614Z,13.15
2019-04-04T09:57:15.629Z,12.23
2019-04-04T09:58:55.242Z,9.48
2019-04-04T10:00:36.532Z,11.55
2019-04-04T10:02:18.317Z,11.33
2019-04-04T10:04:01.079Z,15.20
2019-04-04T10:05:51.396Z,37.93
2019-04-04T10:07:35.718Z,34.35
2019-04-04T10:09:16.971Z,9.10
2019-04-04T10:11:19.088Z,10.60
2019-04-04T10:12:58.574Z,10.00
2019-04-04T10:14:37.717Z,9.30
2019-04-04T10:16:14.910Z,9.95
2019-04-04T10:17:55.656Z,13.85
2019-04-04T10:19:34.948Z,7.97
2019-04-04T10:21:14.965Z,9.70
2019-04-04T10:22:54.700Z,10.58
2019-04-04T10:24:35.743Z,9.93
2019-04-04T10:26:13.114Z,13.83
2019-04-04T10:27:52.148Z,11.55
2019-04-04T10:29:29.521Z,10.75
2019-04-04T10:31:08.781Z,8.83
2019-04-04T10:32:51.718Z,13.98
2019-04-04T10:34:29.083Z,15.68
2019-04-04T10:36:31.565Z,12.95
2019-04-04T10:38:08.739Z,22.07
2019-04-04T10:39:46.525Z,16.62
2019-04-04T10:41:57.558Z,10.13
2019-04-04T10:43:36.284Z,9.88
2019-04-04T10:52:29.134Z,11.28
2019-04-04T10:54:42.411Z,11.08
2019-04-04T10:56:21.537Z,9.03
2019-04-04T10:58:00.470Z,11.50
2019-04-04T10:59:39.319Z,12.20
2019-04-04T11:01:21.949Z,12.68
2019-04-04T11:03:02.792Z,14.53
2019-04-04T11:04:42.830Z,10.58
2019-04-04T11:06:21.291Z,10.03
2019-04-04T11:07:59.111Z,13.93
2019-04-04T15:59:54.395Z,12.90
2019-04-04T16:01:34.878Z,12.43
2019-04-04T16:03:12.251Z,12.65
2019-04-04T16:04:51.194Z,11.35
2019-04-04T16:06:32.384Z,13.53
2019-04-04T16:08:09.426Z,12.05
2019-04-04T16:09:46.738Z,13.55
2019-04-04T16:11:23.787Z,11.93
2019-04-04T16:13:03.103Z,13.78
2019-04-04T16:14:40.055Z,16.17
2019-04-04T16:16:17.821Z,12.55
2019-04-04T16:17:55.004Z,12.70
2019-04-04T16:19:32.887Z,14.45
2019-04-04T16:21:14.081Z,14.98
2019-04-04T16:22:51.359Z,17.00
2019-04-04T16:26:30.448Z,13.48
2019-04-04T16:28:07.987Z,11.80
2019-04-04T16:29:44.931Z,11.38
2019-04-04T16:31:22.565Z,15.18
2019-04-04T16:33:01.728Z,17.23
2019-04-04T16:34:39.602Z,16.93
2019-04-04T16:36:23.208Z,12.73
2019-04-04T16:38:01.998Z,12.00
2019-04-04T16:39:40.871Z,10.48
2019-04-04T16:41:20.099Z,13.22
2019-04-04T16:42:58.938Z,17.02
2019-04-04T16:44:37.890Z,17.75
2019-04-04T16:46:18.631Z,16.17
2019-04-04T16:47:56.117Z,19.70
2019-04-04T16:49:33.342Z,24.10
2019-04-04T16:51:12.872Z,37.70
2019-04-04T16:52:51.006Z,77.53
2019-04-04T16:54:32.143Z,46.45
2019-04-04T16:56:15.940Z,80.65
2019-04-04T16:57:54.623Z,28.80
2019-04-04T16:59:36.245Z,23.35
2019-04-04T17:01:13.318Z,22.35
2019-04-04T17:02:51.647Z,31.95
2019-04-04T17:04:31.910Z,27.22
2019-04-04T17:06:13.796Z,25.62
2019-04-04T17:07:53.674Z,23.25
2019-04-04T17:09:34.501Z,17.07
2019-04-04T17:11:18.466Z,18.27
2019-04-04T17:12:57.467Z,29.42
2019-04-04T17:14:38.487Z,24.72
2019-04-04T17:16:21.335Z,24.20
2019-04-04T17:17:58.821Z,21.85
2019-04-04T17:19:37.298Z,20.30
2019-04-04T17:21:16.925Z,21.68
2019-04-04T17:22:57.318Z,25.40
2019-04-04T17:24:35.053Z,20.95
2019-04-04T17:26:14.708Z,29.02
2019-04-04T17:27:55.728Z,23.75
2019-04-04T17:29:32.609Z,21.05
2019-04-04T17:31:11.532Z,25.97
2019-04-04T17:32:50.333Z,19.15
2019-04-04T17:34:29.940Z,24.15
2019-04-04T17:36:09.983Z,24.43
2019-04-04T17:37:50.356Z,22.87
2019-04-04T17:39:34.754Z,17.70
2019-04-04T17:41:14.024Z,23.30
2019-04-04T17:42:55.510Z,21.02
2019-04-04T17:44:34.310Z,25.43
2019-04-04T17:46:11.491Z,22.85
2019-04-04T17:47:48.984Z,19.20
2019-04-04T17:49:34.058Z,22.62
2019-04-04T17:51:11.730Z,21.35
2019-04-04T17:52:49.304Z,22.48
2019-04-04T17:54:30.591Z,23.15
2019-04-04T17:56:09.876Z,25.95
2019-04-04T17:57:47.820Z,27.58
2019-04-04T17:59:30.257Z,33.42
2019-04-04T18:01:09.274Z,25.30
2019-04-04T18:02:47.702Z,35.30
2019-04-04T18:04:26.621Z,42.73
2019-04-04T18:06:04.538Z,36.53
2019-04-04T18:07:44.341Z,38.05
2019-04-04T18:09:31.802Z,39.70
2019-04-04T18:11:24.948Z,49.85
2019-04-04T18:13:03.178Z,52.85
2019-04-04T18:14:43.665Z,52.67
2019-04-04T18:16:23.299Z,44.53
2019-04-04T18:18:04.385Z,55.88
2019-04-04T18:19:45.490Z,62.27
2019-04-04T18:21:24.054Z,53.17
2019-04-04T18:23:01.488Z,43.78
2019-04-04T18:24:40.091Z,131.72
2019-04-04T18:26:18.304Z,103.70
2019-04-04T18:27:57.411Z,94.07
2019-04-04T18:29:36.986Z,128.95
2019-04-04T18:31:15.301Z,139.90
2019-04-04T18:32:53.544Z,113.35
2019-04-04T18:34:30.871Z,106.90
2019-04-04T18:36:08.296Z,87.33
2019-04-04T18:37:47.082Z,87.42
2019-04-04T18:39:26.631Z,80.05
2019-04-04T18:41:07.903Z,87.85
2019-04-04T18:42:53.143Z,79.97
2019-04-04T18:44:26.416Z,75.15
2019-04-04T18:46:04.983Z,63.25
2019-04-04T18:47:47.106Z,60.75
2019-04-04T18:49:27.421Z,80.10
2019-04-04T18:51:07.300Z,69.40
2019-04-04T18:52:45.991Z,71.15
2019-04-04T18:54:24.227Z,65.62
2019-04-04T18:56:03.765Z,57.27
2019-04-04T18:57:43.569Z,57.53
2019-04-04T18:59:20.693Z,57.08
2019-04-04T19:01:01.104Z,61.80
2019-04-04T19:02:39.655Z,63.78
2019-04-04T19:04:28.983Z,124.22
2019-04-04T19:06:08.848Z,68.67
2019-04-04T19:07:50.901Z,63.40
2019-04-04T19:09:28.659Z,50.30
2019-04-04T19:11:07.077Z,58.50
2019-04-04T19:12:47.308Z,60.50
2019-04-04T19:14:27.268Z,61.13
2019-04-04T19:16:07.772Z,49.65
2019-04-04T19:17:47.339Z,50.03
2019-04-04T19:19:29.131Z,48.05
2019-04-04T19:21:07.151Z,49.23
2019-04-04T19:22:47.158Z,41.55
2019-04-04T19:24:37.388Z,47.83
2019-04-04T19:26:14.415Z,46.90
2019-04-04T19:27:52.504Z,50.35
2019-04-04T19:29:34.329Z,44.18
2019-04-04T19:31:14.604Z,48.65
2019-04-04T19:32:59.509Z,38.15
2019-04-04T19:34:43.727Z,45.58
2019-04-04T19:36:25.051Z,46.58
2019-04-04T19:38:03.108Z,47.65
2019-04-04T19:39:42.674Z,67.70
2019-04-04T19:41:24.269Z,86.90
2019-04-04T19:43:17.425Z,75.25
2019-04-04T19:44:53.904Z,60.70
2019-04-04T19:46:40.075Z,74.87
2019-04-04T19:48:27.675Z,66.75
2019-04-04T19:50:13.030Z,69.65
2019-04-04T19:51:57.246Z,60.00
2019-04-04T19:53:35.828Z,53.73
2019-04-04T19:55:19.251Z,48.98
2019-04-04T19:57:25.588Z,48.02
2019-04-04T19:59:03.404Z,44.23
2019-04-04T20:00:43.208Z,39.27
2019-04-04T20:02:23.936Z,33.45
2019-04-04T20:04:01.918Z,40.83
2019-04-04T20:05:40.157Z,43.45
2019-04-04T20:07:20.336Z,45.25
2019-04-04T20:09:01.237Z,52.00
2019-04-04T20:10:42.350Z,45.45
2019-04-04T20:12:23.060Z,41.20
2019-04-04T20:14:01.555Z,40.28
2019-04-04T20:15:41.564Z,38.17
2019-04-04T20:17:21.586Z,41.68
2019-04-04T20:19:01.380Z,49.58
2019-04-04T20:20:42.011Z,50.17
2019-04-04T20:22:21.719Z,41.77
2019-04-04T20:24:01.507Z,47.70
2019-04-04T20:25:41.045Z,44.70
2019-04-04T20:27:21.671Z,40.50
2019-04-04T20:29:02.219Z,40.73
2019-04-04T20:30:42.855Z,47.38
2019-04-04T20:32:24.644Z,44.35
2019-04-04T20:34:06.437Z,48.23
2019-04-04T20:35:46.807Z,43.38
2019-04-04T20:37:26.326Z,33.65
2019-04-04T20:39:06.900Z,39.80
2019-04-04T20:40:50.296Z,34.78
2019-04-04T20:42:30.010Z,39.45
2019-04-04T20:44:10.460Z,38.10
2019-04-04T20:45:49.976Z,41.88
2019-04-04T20:47:30.116Z,39.67
2019-04-04T20:49:12.259Z,41.70
2019-04-04T20:50:51.532Z,42.80
2019-04-04T20:52:31.758Z,40.80
2019-04-04T20:54:12.393Z,53.30
2019-04-04T20:55:54.602Z,79.50
2019-04-04T20:57:32.901Z,33.78
2019-04-04T20:59:14.359Z,60.70
2019-04-04T21:00:55.093Z,39.75
2019-04-04T21:02:36.957Z,36.35
2019-04-04T21:04:18.911Z,33.65
2019-04-04T21:06:03.487Z,39.13
2019-04-04T21:07:47.905Z,43.17
2019-04-04T21:09:31.269Z,41.20
2019-04-04T21:11:08.958Z,38.38
2019-04-04T21:12:49.446Z,43.73
2019-04-04T21:14:30.656Z,34.35
2019-04-04T21:16:14.369Z,38.17
2019-04-04T21:17:53.769Z,38.33
2019-04-04T21:19:34.062Z,42.08
2019-04-04T21:21:12.464Z,39.08
2019-04-04T21:22:53.460Z,37.73
2019-04-04T21:24:40.681Z,37.23
2019-04-04T21:26:24.756Z,32.38
2019-04-04T21:28:06.688Z,36.42
2019-04-04T21:29:47.419Z,38.55
2019-04-04T21:31:32.055Z,41.88
2019-04-04T21:34:57.889Z,42.13
2019-04-04T21:36:39.389Z,42.03
2019-04-04T21:38:20.049Z,55.55
2019-04-04T21:40:02.438Z,44.30
2019-04-04T21:41:44.942Z,39.48
2019-04-04T21:43:26.995Z,36.98
2019-04-04T21:45:07.743Z,37.15
2019-04-04T21:46:50.404Z,40.40
2019-04-04T21:48:35.314Z,49.70
2019-04-04T21:50:20.422Z,58.50
2019-04-04T21:52:03.954Z,58.70
2019-04-04T21:53:46.406Z,52.70
2019-04-04T21:55:26.960Z,35.68
2019-04-04T21:57:08.147Z,39.90
2019-04-04T21:58:51.705Z,39.50
2019-04-04T22:00:45.707Z,37.65
2019-04-04T22:02:30.010Z,40.28
2019-04-04T22:04:12.451Z,60.23
2019-04-04T22:05:52.074Z,44.33
2019-04-04T22:07:35.178Z,49.42
2019-04-04T22:09:21.025Z,71.30
2019-04-04T22:11:02.054Z,119.42
2019-04-04T22:12:43.918Z,103.22
2019-04-04T22:14:24.851Z,79.75
2019-04-04T22:16:06.128Z,67.65
2019-04-04T22:17:49.143Z,58.17
2019-04-04T22:19:30.302Z,49.25
2019-04-04T22:21:14.171Z,62.05
2019-04-04T22:22:56.450Z,70.87
2019-04-04T22:24:39.278Z,65.42
2019-04-04T22:26:20.680Z,57.05
2019-04-04T22:28:06.410Z,74.82
2019-04-04T22:29:46.344Z,85.72
2019-04-04T22:31:27.752Z,66.95
2019-04-04T22:33:11.490Z,65.03
2019-04-04T22:34:54.158Z,64.07
2019-04-04T22:36:36.729Z,67.55
2019-04-04T22:38:19.308Z,60.43
2019-04-04T22:40:02.844Z,59.83
2019-04-04T22:43:28.918Z,64.77
2019-04-04T22:45:13.295Z,57.73
2019-04-04T22:46:57.831Z,59.98
2019-04-04T22:48:38.309Z,50.23
2019-04-04T22:50:20.352Z,51.13
2019-04-04T22:52:03.390Z,49.53
2019-04-04T22:53:44.927Z,48.48
2019-04-04T22:55:29.489Z,47.15
2019-04-04T22:57:12.520Z,55.23
2019-04-04T22:58:54.002Z,53.02
2019-04-04T23:00:39.070Z,67.72
2019-04-04T23:02:18.733Z,69.47
2019-04-04T23:04:01.018Z,51.37
2019-04-04T23:05:44.412Z,51.55
2019-04-04T23:07:25.696Z,51.65
2019-04-04T23:09:08.401Z,53.92
2019-04-04T23:10:50.989Z,57.33
2019-04-04T23:12:32.803Z,52.50
2019-04-04T23:14:15.628Z,56.57
2019-04-04T23:17:39.685Z,45.12
2019-04-04T23:19:20.667Z,39.57
2019-04-04T23:21:02.087Z,41.58
2019-04-04T23:22:52.559Z,48.17
2019-04-04T23:24:28.565Z,50.17
2019-04-04T23:26:09.555Z,49.20
2019-04-04T23:27:50.298Z,63.00
2019-04-04T23:29:33.062Z,52.17
2019-04-04T23:31:15.506Z,48.20
2019-04-04T23:33:02.054Z,52.95
2019-04-04T23:34:44.861Z,47.33
2019-04-04T23:36:34.321Z,46.02
2019-04-04T23:38:10.481Z,47.80
2019-04-04T23:39:56.533Z,40.60
2019-04-04T23:43:16.150Z,39.50
2019-04-04T23:46:55.657Z,48.33
2019-04-04T23:48:38.151Z,42.73
2019-04-04T23:50:22.123Z,50.77
2019-04-04T23:52:02.890Z,42.45
2019-04-04T23:53:43.239Z,55.43
2019-04-04T23:55:37.642Z,51.30
2019-04-04T23:57:18.987Z,56.70
2019-04-04T23:58:58.560Z,53.90
